sensor_id;sensor_type;location;lat;lon;timestamp;pressure;altitude;pressure_sealevel;temperature
64960;BMP180;51487;52.266;10.542;2023-08-06T00:00:22;99890.00;;;15.00
64960;BMP180;51487;52.266;10.542;2023-08-06T00:02:48;99879.00;;;15.00
64960;BMP180;51487;52.266;10.542;2023-08-06T00:05:15;99885.00;;;15.00
64960;BMP180;51487;52.266;10.542;2023-08-06T00:07:46;99880.00;;;15.10
64960;BMP180;51487;52.266;10.542;2023-08-06T00:10:14;99872.00;;;15.10
64960;BMP180;51487;52.266;10.542;2023-08-06T00:12:40;99869.00;;;15.00
64960;BMP180;51487;52.266;10.542;2023-08-06T00:15:07;99870.00;;;14.90
64960;BMP180;51487;52.266;10.542;2023-08-06T00:17:36;99861.00;;;14.90
64960;BMP180;51487;52.266;10.542;2023-08-06T00:20:03;99856.00;;;14.80
64960;BMP180;51487;52.266;10.542;2023-08-06T00:22:35;99846.00;;;14.80
64960;BMP180;51487;52.266;10.542;2023-08-06T00:25:02;99841.00;;;14.80
64960;BMP180;51487;52.266;10.542;2023-08-06T00:27:28;99836.00;;;14.70
64960;BMP180;51487;52.266;10.542;2023-08-06T00:29:54;99828.00;;;14.80
64960;BMP180;51487;52.266;10.542;2023-08-06T00:32:20;99811.00;;;14.80
64960;BMP180;51487;52.266;10.542;2023-08-06T00:34:46;99822.00;;;14.80
64960;BMP180;51487;52.266;10.542;2023-08-06T00:37:14;99825.00;;;14.60
64960;BMP180;51487;52.266;10.542;2023-08-06T00:39:41;99812.00;;;14.60
64960;BMP180;51487;52.266;10.542;2023-08-06T00:42:07;99809.00;;;14.70
64960;BMP180;51487;52.266;10.542;2023-08-06T00:44:33;99796.00;;;14.70
64960;BMP180;51487;52.266;10.542;2023-08-06T00:46:58;99794.00;;;14.70
64960;BMP180;51487;52.266;10.542;2023-08-06T00:49:24;99794.00;;;14.70
64960;BMP180;51487;52.266;10.542;2023-08-06T00:51:50;99791.00;;;14.70
64960;BMP180;51487;52.266;10.542;2023-08-06T00:54:16;99782.00;;;14.70
64960;BMP180;51487;52.266;10.542;2023-08-06T00:56:45;99781.00;;;14.60
64960;BMP180;51487;52.266;10.542;2023-08-06T00:59:12;99773.00;;;14.70
64960;BMP180;51487;52.266;10.542;2023-08-06T01:01:38;99777.00;;;14.70
64960;BMP180;51487;52.266;10.542;2023-08-06T01:04:04;99772.00;;;14.70
64960;BMP180;51487;52.266;10.542;2023-08-06T01:06:48;99776.00;;;14.70
64960;BMP180;51487;52.266;10.542;2023-08-06T01:09:35;99774.00;;;14.70
64960;BMP180;51487;52.266;10.542;2023-08-06T01:15:29;99768.00;;;14.80
64960;BMP180;51487;52.266;10.542;2023-08-06T01:17:59;99766.00;;;14.80
64960;BMP180;51487;52.266;10.542;2023-08-06T01:20:29;99761.00;;;14.90
64960;BMP180;51487;52.266;10.542;2023-08-06T01:22:55;99769.00;;;14.90
64960;BMP180;51487;52.266;10.542;2023-08-06T01:25:20;99773.00;;;14.80
64960;BMP180;51487;52.266;10.542;2023-08-06T01:27:51;99773.00;;;15.00
64960;BMP180;51487;52.266;10.542;2023-08-06T01:30:30;99781.00;;;14.90
64960;BMP180;51487;52.266;10.542;2023-08-06T01:33:03;99776.00;;;14.90
64960;BMP180;51487;52.266;10.542;2023-08-06T01:35:30;99769.00;;;14.90
64960;BMP180;51487;52.266;10.542;2023-08-06T01:37:56;99759.00;;;14.80
64960;BMP180;51487;52.266;10.542;2023-08-06T01:40:22;99749.00;;;14.80
64960;BMP180;51487;52.266;10.542;2023-08-06T01:42:47;99743.00;;;14.70
64960;BMP180;51487;52.266;10.542;2023-08-06T01:45:13;99748.00;;;14.80
64960;BMP180;51487;52.266;10.542;2023-08-06T01:47:39;99747.00;;;14.80
64960;BMP180;51487;52.266;10.542;2023-08-06T01:50:05;99739.00;;;14.70
64960;BMP180;51487;52.266;10.542;2023-08-06T01:52:31;99734.00;;;14.70
64960;BMP180;51487;52.266;10.542;2023-08-06T01:54:56;99735.00;;;14.70
64960;BMP180;51487;52.266;10.542;2023-08-06T01:57:22;99731.00;;;14.70
64960;BMP180;51487;52.266;10.542;2023-08-06T01:59:48;99728.00;;;14.70
64960;BMP180;51487;52.266;10.542;2023-08-06T02:02:13;99722.00;;;14.60
64960;BMP180;51487;52.266;10.542;2023-08-06T02:04:38;99726.00;;;14.60
64960;BMP180;51487;52.266;10.542;2023-08-06T02:07:04;99712.00;;;14.70
64960;BMP180;51487;52.266;10.542;2023-08-06T02:09:30;99722.00;;;14.70
64960;BMP180;51487;52.266;10.542;2023-08-06T02:11:55;99719.00;;;14.70
64960;BMP180;51487;52.266;10.542;2023-08-06T02:14:21;99728.00;;;14.60
64960;BMP180;51487;52.266;10.542;2023-08-06T02:16:46;99730.00;;;14.70
64960;BMP180;51487;52.266;10.542;2023-08-06T02:19:11;99727.00;;;14.60
64960;BMP180;51487;52.266;10.542;2023-08-06T02:21:37;99729.00;;;14.60
64960;BMP180;51487;52.266;10.542;2023-08-06T02:24:03;99721.00;;;14.70
64960;BMP180;51487;52.266;10.542;2023-08-06T02:26:29;99714.00;;;14.60
64960;BMP180;51487;52.266;10.542;2023-08-06T02:28:54;99711.00;;;14.50
64960;BMP180;51487;52.266;10.542;2023-08-06T02:31:20;99713.00;;;14.60
64960;BMP180;51487;52.266;10.542;2023-08-06T02:33:45;99714.00;;;14.70
64960;BMP180;51487;52.266;10.542;2023-08-06T02:36:11;99703.00;;;14.70
64960;BMP180;51487;52.266;10.542;2023-08-06T02:38:36;99708.00;;;14.80
64960;BMP180;51487;52.266;10.542;2023-08-06T02:41:02;99705.00;;;14.80
64960;BMP180;51487;52.266;10.542;2023-08-06T02:43:32;99689.00;;;14.70
64960;BMP180;51487;52.266;10.542;2023-08-06T02:45:58;99680.00;;;14.70
64960;BMP180;51487;52.266;10.542;2023-08-06T02:48:25;99684.00;;;14.60
64960;BMP180;51487;52.266;10.542;2023-08-06T02:50:50;99678.00;;;14.70
64960;BMP180;51487;52.266;10.542;2023-08-06T02:53:16;99673.00;;;14.70
64960;BMP180;51487;52.266;10.542;2023-08-06T02:55:48;99670.00;;;14.70
64960;BMP180;51487;52.266;10.542;2023-08-06T02:58:14;99670.00;;;14.70
64960;BMP180;51487;52.266;10.542;2023-08-06T03:00:40;99668.00;;;14.80
64960;BMP180;51487;52.266;10.542;2023-08-06T03:03:06;99666.00;;;14.70
64960;BMP180;51487;52.266;10.542;2023-08-06T03:05:31;99658.00;;;14.70
64960;BMP180;51487;52.266;10.542;2023-08-06T03:07:57;99650.00;;;14.70
64960;BMP180;51487;52.266;10.542;2023-08-06T03:10:22;99655.00;;;14.60
64960;BMP180;51487;52.266;10.542;2023-08-06T03:12:48;99650.00;;;14.60
64960;BMP180;51487;52.266;10.542;2023-08-06T03:15:13;99656.00;;;14.70
64960;BMP180;51487;52.266;10.542;2023-08-06T03:17:39;99655.00;;;14.70
64960;BMP180;51487;52.266;10.542;2023-08-06T03:20:05;99649.00;;;14.80
64960;BMP180;51487;52.266;10.542;2023-08-06T03:22:31;99651.00;;;14.80
64960;BMP180;51487;52.266;10.542;2023-08-06T03:24:57;99651.00;;;14.80
64960;BMP180;51487;52.266;10.542;2023-08-06T03:27:22;99656.00;;;14.80
64960;BMP180;51487;52.266;10.542;2023-08-06T03:29:49;99665.00;;;14.80
64960;BMP180;51487;52.266;10.542;2023-08-06T03:32:15;99662.00;;;14.70
64960;BMP180;51487;52.266;10.542;2023-08-06T03:34:41;99664.00;;;14.80
64960;BMP180;51487;52.266;10.542;2023-08-06T03:37:07;99663.00;;;14.80
64960;BMP180;51487;52.266;10.542;2023-08-06T03:39:32;99652.00;;;14.70
64960;BMP180;51487;52.266;10.542;2023-08-06T03:41:58;99665.00;;;14.70
64960;BMP180;51487;52.266;10.542;2023-08-06T03:44:24;99658.00;;;14.70
64960;BMP180;51487;52.266;10.542;2023-08-06T03:46:49;99654.00;;;14.70
64960;BMP180;51487;52.266;10.542;2023-08-06T03:49:15;99649.00;;;14.60
64960;BMP180;51487;52.266;10.542;2023-08-06T03:51:40;99647.00;;;14.70
64960;BMP180;51487;52.266;10.542;2023-08-06T03:54:06;99647.00;;;14.70
64960;BMP180;51487;52.266;10.542;2023-08-06T03:56:31;99638.00;;;14.60
64960;BMP180;51487;52.266;10.542;2023-08-06T03:58:57;99630.00;;;14.60
64960;BMP180;51487;52.266;10.542;2023-08-06T04:01:22;99630.00;;;14.60
64960;BMP180;51487;52.266;10.542;2023-08-06T04:03:48;99628.00;;;14.70
64960;BMP180;51487;52.266;10.542;2023-08-06T04:06:13;99622.00;;;14.70
64960;BMP180;51487;52.266;10.542;2023-08-06T04:08:39;99630.00;;;14.80
64960;BMP180;51487;52.266;10.542;2023-08-06T04:11:04;99633.00;;;14.80
64960;BMP180;51487;52.266;10.542;2023-08-06T04:13:30;99638.00;;;14.70
64960;BMP180;51487;52.266;10.542;2023-08-06T04:16:00;99649.00;;;14.70
64960;BMP180;51487;52.266;10.542;2023-08-06T04:18:27;99647.00;;;14.70
64960;BMP180;51487;52.266;10.542;2023-08-06T04:20:53;99643.00;;;14.70
64960;BMP180;51487;52.266;10.542;2023-08-06T04:23:20;99634.00;;;14.70
64960;BMP180;51487;52.266;10.542;2023-08-06T04:25:46;99629.00;;;14.70
64960;BMP180;51487;52.266;10.542;2023-08-06T04:28:11;99647.00;;;14.70
64960;BMP180;51487;52.266;10.542;2023-08-06T04:30:37;99637.00;;;14.60
64960;BMP180;51487;52.266;10.542;2023-08-06T04:33:03;99638.00;;;14.60
64960;BMP180;51487;52.266;10.542;2023-08-06T04:35:28;99641.00;;;14.70
64960;BMP180;51487;52.266;10.542;2023-08-06T04:37:54;99639.00;;;14.70
64960;BMP180;51487;52.266;10.542;2023-08-06T04:40:19;99634.00;;;14.60
64960;BMP180;51487;52.266;10.542;2023-08-06T04:42:45;99640.00;;;14.70
64960;BMP180;51487;52.266;10.542;2023-08-06T04:45:10;99635.00;;;14.70
64960;BMP180;51487;52.266;10.542;2023-08-06T04:47:36;99640.00;;;14.60
64960;BMP180;51487;52.266;10.542;2023-08-06T04:50:01;99633.00;;;14.60
64960;BMP180;51487;52.266;10.542;2023-08-06T04:52:27;99629.00;;;14.60
64960;BMP180;51487;52.266;10.542;2023-08-06T04:54:54;99632.00;;;14.60
64960;BMP180;51487;52.266;10.542;2023-08-06T04:57:19;99626.00;;;14.70
64960;BMP180;51487;52.266;10.542;2023-08-06T04:59:46;99625.00;;;14.70
64960;BMP180;51487;52.266;10.542;2023-08-06T05:02:11;99632.00;;;14.70
64960;BMP180;51487;52.266;10.542;2023-08-06T05:04:37;99624.00;;;14.70
64960;BMP180;51487;52.266;10.542;2023-08-06T05:07:04;99627.00;;;14.60
64960;BMP180;51487;52.266;10.542;2023-08-06T05:09:34;99626.00;;;14.70
64960;BMP180;51487;52.266;10.542;2023-08-06T05:12:00;99614.00;;;14.70
64960;BMP180;51487;52.266;10.542;2023-08-06T05:14:26;99615.00;;;14.80
64960;BMP180;51487;52.266;10.542;2023-08-06T05:16:52;99602.00;;;14.70
64960;BMP180;51487;52.266;10.542;2023-08-06T05:19:17;99604.00;;;14.80
64960;BMP180;51487;52.266;10.542;2023-08-06T05:21:43;99604.00;;;14.90
64960;BMP180;51487;52.266;10.542;2023-08-06T05:24:08;99605.00;;;15.10
64960;BMP180;51487;52.266;10.542;2023-08-06T05:26:34;99605.00;;;15.20
64960;BMP180;51487;52.266;10.542;2023-08-06T05:29:00;99606.00;;;15.10
64960;BMP180;51487;52.266;10.542;2023-08-06T05:31:26;99613.00;;;15.10
64960;BMP180;51487;52.266;10.542;2023-08-06T05:33:54;99604.00;;;15.10
64960;BMP180;51487;52.266;10.542;2023-08-06T05:36:19;99598.00;;;15.10
64960;BMP180;51487;52.266;10.542;2023-08-06T05:38:46;99602.00;;;15.10
64960;BMP180;51487;52.266;10.542;2023-08-06T05:41:12;99598.00;;;15.10
64960;BMP180;51487;52.266;10.542;2023-08-06T05:43:40;99596.00;;;15.10
64960;BMP180;51487;52.266;10.542;2023-08-06T05:46:06;99591.00;;;15.20
64960;BMP180;51487;52.266;10.542;2023-08-06T05:48:31;99600.00;;;15.30
64960;BMP180;51487;52.266;10.542;2023-08-06T05:50:57;99596.00;;;15.40
64960;BMP180;51487;52.266;10.542;2023-08-06T05:53:24;99592.00;;;15.30
64960;BMP180;51487;52.266;10.542;2023-08-06T05:55:50;99596.00;;;15.30
64960;BMP180;51487;52.266;10.542;2023-08-06T05:58:15;99599.00;;;15.40
64960;BMP180;51487;52.266;10.542;2023-08-06T06:00:41;99596.00;;;15.30
64960;BMP180;51487;52.266;10.542;2023-08-06T06:03:06;99601.00;;;15.50
64960;BMP180;51487;52.266;10.542;2023-08-06T06:05:40;99594.00;;;15.60
64960;BMP180;51487;52.266;10.542;2023-08-06T06:08:06;99600.00;;;15.60
64960;BMP180;51487;52.266;10.542;2023-08-06T06:10:33;99595.00;;;15.60
64960;BMP180;51487;52.266;10.542;2023-08-06T06:12:58;99591.00;;;15.70
64960;BMP180;51487;52.266;10.542;2023-08-06T06:15:24;99588.00;;;15.60
64960;BMP180;51487;52.266;10.542;2023-08-06T06:17:49;99598.00;;;15.60
64960;BMP180;51487;52.266;10.542;2023-08-06T06:20:15;99592.00;;;15.60
64960;BMP180;51487;52.266;10.542;2023-08-06T06:22:40;99597.00;;;15.70
64960;BMP180;51487;52.266;10.542;2023-08-06T06:25:06;99598.00;;;15.80
64960;BMP180;51487;52.266;10.542;2023-08-06T06:27:32;99595.00;;;15.80
64960;BMP180;51487;52.266;10.542;2023-08-06T06:29:58;99599.00;;;15.80
64960;BMP180;51487;52.266;10.542;2023-08-06T06:32:23;99592.00;;;15.80
64960;BMP180;51487;52.266;10.542;2023-08-06T06:34:49;99590.00;;;15.90
64960;BMP180;51487;52.266;10.542;2023-08-06T06:37:14;99591.00;;;16.00
64960;BMP180;51487;52.266;10.542;2023-08-06T06:39:40;99591.00;;;16.10
64960;BMP180;51487;52.266;10.542;2023-08-06T06:42:05;99584.00;;;16.00
64960;BMP180;51487;52.266;10.542;2023-08-06T06:44:31;99586.00;;;15.90
64960;BMP180;51487;52.266;10.542;2023-08-06T06:46:56;99584.00;;;15.90
64960;BMP180;51487;52.266;10.542;2023-08-06T06:49:22;99582.00;;;16.00
64960;BMP180;51487;52.266;10.542;2023-08-06T06:51:48;99579.00;;;16.10
64960;BMP180;51487;52.266;10.542;2023-08-06T06:54:13;99578.00;;;16.10
64960;BMP180;51487;52.266;10.542;2023-08-06T06:56:39;99573.00;;;16.30
64960;BMP180;51487;52.266;10.542;2023-08-06T06:59:04;99582.00;;;16.30
64960;BMP180;51487;52.266;10.542;2023-08-06T07:01:30;99578.00;;;16.40
64960;BMP180;51487;52.266;10.542;2023-08-06T07:03:55;99569.00;;;16.30
64960;BMP180;51487;52.266;10.542;2023-08-06T07:06:20;99580.00;;;16.30
64960;BMP180;51487;52.266;10.542;2023-08-06T07:08:46;99576.00;;;16.50
64960;BMP180;51487;52.266;10.542;2023-08-06T07:11:11;99574.00;;;16.30
64960;BMP180;51487;52.266;10.542;2023-08-06T07:13:37;99568.00;;;16.50
64960;BMP180;51487;52.266;10.542;2023-08-06T07:16:03;99562.00;;;16.60
64960;BMP180;51487;52.266;10.542;2023-08-06T07:18:29;99569.00;;;16.70
64960;BMP180;51487;52.266;10.542;2023-08-06T07:20:55;99572.00;;;16.70
64960;BMP180;51487;52.266;10.542;2023-08-06T07:23:25;99578.00;;;16.70
64960;BMP180;51487;52.266;10.542;2023-08-06T07:25:51;99576.00;;;17.00
64960;BMP180;51487;52.266;10.542;2023-08-06T07:28:17;99580.00;;;17.20
64960;BMP180;51487;52.266;10.542;2023-08-06T07:30:43;99574.00;;;17.20
64960;BMP180;51487;52.266;10.542;2023-08-06T07:33:10;99578.00;;;16.90
64960;BMP180;51487;52.266;10.542;2023-08-06T07:35:36;99585.00;;;16.80
64960;BMP180;51487;52.266;10.542;2023-08-06T07:38:02;99580.00;;;16.80
64960;BMP180;51487;52.266;10.542;2023-08-06T07:40:28;99571.00;;;16.80
64960;BMP180;51487;52.266;10.542;2023-08-06T07:42:54;99579.00;;;17.00
64960;BMP180;51487;52.266;10.542;2023-08-06T07:45:23;99572.00;;;16.80
64960;BMP180;51487;52.266;10.542;2023-08-06T07:47:49;99573.00;;;16.80
64960;BMP180;51487;52.266;10.542;2023-08-06T07:50:15;99576.00;;;16.90
64960;BMP180;51487;52.266;10.542;2023-08-06T07:52:40;99575.00;;;17.00
64960;BMP180;51487;52.266;10.542;2023-08-06T07:55:06;99568.00;;;17.10
64960;BMP180;51487;52.266;10.542;2023-08-06T07:57:32;99563.00;;;17.10
64960;BMP180;51487;52.266;10.542;2023-08-06T07:59:58;99569.00;;;17.20
64960;BMP180;51487;52.266;10.542;2023-08-06T08:02:25;99568.00;;;17.30
64960;BMP180;51487;52.266;10.542;2023-08-06T08:04:50;99566.00;;;17.40
64960;BMP180;51487;52.266;10.542;2023-08-06T08:07:16;99568.00;;;17.40
64960;BMP180;51487;52.266;10.542;2023-08-06T08:09:41;99560.00;;;17.50
64960;BMP180;51487;52.266;10.542;2023-08-06T08:12:07;99569.00;;;17.40
64960;BMP180;51487;52.266;10.542;2023-08-06T08:14:33;99560.00;;;17.40
64960;BMP180;51487;52.266;10.542;2023-08-06T08:17:03;99560.00;;;17.40
64960;BMP180;51487;52.266;10.542;2023-08-06T08:19:30;99557.00;;;17.50
64960;BMP180;51487;52.266;10.542;2023-08-06T08:21:57;99553.00;;;17.60
64960;BMP180;51487;52.266;10.542;2023-08-06T08:24:23;99550.00;;;17.40
64960;BMP180;51487;52.266;10.542;2023-08-06T08:26:52;99553.00;;;17.40
64960;BMP180;51487;52.266;10.542;2023-08-06T08:29:22;99544.00;;;17.50
64960;BMP180;51487;52.266;10.542;2023-08-06T08:31:48;99545.00;;;17.70
64960;BMP180;51487;52.266;10.542;2023-08-06T08:34:16;99553.00;;;17.50
64960;BMP180;51487;52.266;10.542;2023-08-06T08:36:42;99539.00;;;17.60
64960;BMP180;51487;52.266;10.542;2023-08-06T08:39:08;99540.00;;;17.50
64960;BMP180;51487;52.266;10.542;2023-08-06T08:41:37;99540.00;;;17.40
64960;BMP180;51487;52.266;10.542;2023-08-06T08:44:06;99541.00;;;17.70
64960;BMP180;51487;52.266;10.542;2023-08-06T08:46:36;99536.00;;;17.90
64960;BMP180;51487;52.266;10.542;2023-08-06T08:49:05;99534.00;;;18.10
64960;BMP180;51487;52.266;10.542;2023-08-06T08:51:33;99535.00;;;18.20
64960;BMP180;51487;52.266;10.542;2023-08-06T08:54:03;99531.00;;;18.30
64960;BMP180;51487;52.266;10.542;2023-08-06T08:56:29;99531.00;;;18.40
64960;BMP180;51487;52.266;10.542;2023-08-06T08:58:55;99536.00;;;18.30
64960;BMP180;51487;52.266;10.542;2023-08-06T09:01:24;99535.00;;;18.30
64960;BMP180;51487;52.266;10.542;2023-08-06T09:03:51;99533.00;;;18.40
64960;BMP180;51487;52.266;10.542;2023-08-06T09:06:19;99524.00;;;18.40
64960;BMP180;51487;52.266;10.542;2023-08-06T09:09:08;99527.00;;;18.10
64960;BMP180;51487;52.266;10.542;2023-08-06T09:11:43;99520.00;;;18.40
64960;BMP180;51487;52.266;10.542;2023-08-06T09:14:10;99524.00;;;18.50
64960;BMP180;51487;52.266;10.542;2023-08-06T09:16:37;99524.00;;;18.60
64960;BMP180;51487;52.266;10.542;2023-08-06T09:19:08;99516.00;;;18.80
64960;BMP180;51487;52.266;10.542;2023-08-06T09:21:37;99529.00;;;18.90
64960;BMP180;51487;52.266;10.542;2023-08-06T09:24:11;99526.00;;;19.00
64960;BMP180;51487;52.266;10.542;2023-08-06T09:26:41;99521.00;;;19.20
64960;BMP180;51487;52.266;10.542;2023-08-06T09:29:10;99523.00;;;19.00
64960;BMP180;51487;52.266;10.542;2023-08-06T09:31:45;99517.00;;;18.80
64960;BMP180;51487;52.266;10.542;2023-08-06T09:34:21;99514.00;;;18.90
64960;BMP180;51487;52.266;10.542;2023-08-06T09:36:50;99521.00;;;19.00
64960;BMP180;51487;52.266;10.542;2023-08-06T09:39:19;99517.00;;;19.00
64960;BMP180;51487;52.266;10.542;2023-08-06T09:41:46;99507.00;;;18.90
64960;BMP180;51487;52.266;10.542;2023-08-06T09:44:19;99516.00;;;18.70
64960;BMP180;51487;52.266;10.542;2023-08-06T09:46:48;99515.00;;;18.80
64960;BMP180;51487;52.266;10.542;2023-08-06T09:49:15;99521.00;;;18.90
64960;BMP180;51487;52.266;10.542;2023-08-06T09:51:41;99512.00;;;18.90
64960;BMP180;51487;52.266;10.542;2023-08-06T09:54:06;99514.00;;;19.10
64960;BMP180;51487;52.266;10.542;2023-08-06T09:56:36;99511.00;;;19.10
64960;BMP180;51487;52.266;10.542;2023-08-06T09:59:04;99515.00;;;18.90
64960;BMP180;51487;52.266;10.542;2023-08-06T10:01:33;99520.00;;;18.80
64960;BMP180;51487;52.266;10.542;2023-08-06T10:04:01;99515.00;;;18.80
64960;BMP180;51487;52.266;10.542;2023-08-06T10:06:29;99498.00;;;18.80
64960;BMP180;51487;52.266;10.542;2023-08-06T10:08:55;99502.00;;;19.00
64960;BMP180;51487;52.266;10.542;2023-08-06T10:11:24;99512.00;;;19.00
64960;BMP180;51487;52.266;10.542;2023-08-06T10:13:54;99504.00;;;19.10
64960;BMP180;51487;52.266;10.542;2023-08-06T10:16:23;99505.00;;;19.40
64960;BMP180;51487;52.266;10.542;2023-08-06T10:18:50;99495.00;;;19.50
64960;BMP180;51487;52.266;10.542;2023-08-06T10:21:17;99500.00;;;19.40
64960;BMP180;51487;52.266;10.542;2023-08-06T10:23:42;99489.00;;;19.40
64960;BMP180;51487;52.266;10.542;2023-08-06T10:26:08;99498.00;;;19.40
64960;BMP180;51487;52.266;10.542;2023-08-06T10:28:35;99491.00;;;19.30
64960;BMP180;51487;52.266;10.542;2023-08-06T10:31:05;99484.00;;;19.50
64960;BMP180;51487;52.266;10.542;2023-08-06T10:33:47;99483.00;;;19.50
64960;BMP180;51487;52.266;10.542;2023-08-06T10:36:14;99483.00;;;19.80
64960;BMP180;51487;52.266;10.542;2023-08-06T10:38:47;99476.00;;;20.00
64960;BMP180;51487;52.266;10.542;2023-08-06T10:41:32;99475.00;;;20.20
64960;BMP180;51487;52.266;10.542;2023-08-06T10:44:10;99469.00;;;19.90
64960;BMP180;51487;52.266;10.542;2023-08-06T10:46:37;99474.00;;;19.90
64960;BMP180;51487;52.266;10.542;2023-08-06T10:49:04;99468.00;;;19.90
64960;BMP180;51487;52.266;10.542;2023-08-06T10:51:30;99476.00;;;20.10
64960;BMP180;51487;52.266;10.542;2023-08-06T10:53:56;99468.00;;;20.10
64960;BMP180;51487;52.266;10.542;2023-08-06T10:56:24;99471.00;;;20.00
64960;BMP180;51487;52.266;10.542;2023-08-06T10:58:54;99467.00;;;19.80
64960;BMP180;51487;52.266;10.542;2023-08-06T11:01:22;99467.00;;;19.70
64960;BMP180;51487;52.266;10.542;2023-08-06T11:03:49;99464.00;;;19.90
64960;BMP180;51487;52.266;10.542;2023-08-06T11:06:20;99458.00;;;19.80
64960;BMP180;51487;52.266;10.542;2023-08-06T11:08:48;99457.00;;;19.80
64960;BMP180;51487;52.266;10.542;2023-08-06T11:11:16;99454.00;;;20.00
64960;BMP180;51487;52.266;10.542;2023-08-06T11:13:44;99450.00;;;20.30
64960;BMP180;51487;52.266;10.542;2023-08-06T11:16:19;99450.00;;;20.30
64960;BMP180;51487;52.266;10.542;2023-08-06T11:18:48;99448.00;;;20.30
64960;BMP180;51487;52.266;10.542;2023-08-06T11:21:14;99441.00;;;20.20
64960;BMP180;51487;52.266;10.542;2023-08-06T11:23:40;99437.00;;;20.60
64960;BMP180;51487;52.266;10.542;2023-08-06T11:26:07;99438.00;;;20.60
64960;BMP180;51487;52.266;10.542;2023-08-06T11:28:33;99428.00;;;20.50
64960;BMP180;51487;52.266;10.542;2023-08-06T11:30:58;99427.00;;;20.30
64960;BMP180;51487;52.266;10.542;2023-08-06T11:33:27;99433.00;;;20.50
64960;BMP180;51487;52.266;10.542;2023-08-06T11:35:57;99428.00;;;21.00
64960;BMP180;51487;52.266;10.542;2023-08-06T11:38:28;99430.00;;;21.30
64960;BMP180;51487;52.266;10.542;2023-08-06T11:40:54;99438.00;;;21.30
64960;BMP180;51487;52.266;10.542;2023-08-06T11:43:21;99431.00;;;21.20
64960;BMP180;51487;52.266;10.542;2023-08-06T11:45:48;99428.00;;;21.00
64960;BMP180;51487;52.266;10.542;2023-08-06T11:48:15;99434.00;;;21.10
64960;BMP180;51487;52.266;10.542;2023-08-06T11:50:42;99444.00;;;21.00
64960;BMP180;51487;52.266;10.542;2023-08-06T11:53:07;99432.00;;;21.00
64960;BMP180;51487;52.266;10.542;2023-08-06T11:55:36;99434.00;;;20.90
64960;BMP180;51487;52.266;10.542;2023-08-06T11:58:03;99439.00;;;21.00
64960;BMP180;51487;52.266;10.542;2023-08-06T12:00:29;99423.00;;;21.10
64960;BMP180;51487;52.266;10.542;2023-08-06T12:02:56;99418.00;;;21.30
64960;BMP180;51487;52.266;10.542;2023-08-06T12:05:23;99413.00;;;21.40
64960;BMP180;51487;52.266;10.542;2023-08-06T12:07:58;99410.00;;;21.50
64960;BMP180;51487;52.266;10.542;2023-08-06T12:10:26;99414.00;;;21.80
64960;BMP180;51487;52.266;10.542;2023-08-06T12:12:53;99410.00;;;21.70
64960;BMP180;51487;52.266;10.542;2023-08-06T12:15:19;99415.00;;;21.40
64960;BMP180;51487;52.266;10.542;2023-08-06T12:17:45;99416.00;;;21.40
64960;BMP180;51487;52.266;10.542;2023-08-06T12:20:11;99412.00;;;21.60
64960;BMP180;51487;52.266;10.542;2023-08-06T12:22:37;99410.00;;;21.50
64960;BMP180;51487;52.266;10.542;2023-08-06T12:25:08;99397.00;;;21.50
64960;BMP180;51487;52.266;10.542;2023-08-06T12:27:35;99393.00;;;21.70
64960;BMP180;51487;52.266;10.542;2023-08-06T12:30:03;99403.00;;;21.60
64960;BMP180;51487;52.266;10.542;2023-08-06T12:32:29;99398.00;;;21.70
64960;BMP180;51487;52.266;10.542;2023-08-06T12:34:55;99395.00;;;21.70
64960;BMP180;51487;52.266;10.542;2023-08-06T12:37:20;99408.00;;;21.60
64960;BMP180;51487;52.266;10.542;2023-08-06T12:39:46;99393.00;;;21.50
64960;BMP180;51487;52.266;10.542;2023-08-06T12:42:12;99395.00;;;21.60
64960;BMP180;51487;52.266;10.542;2023-08-06T12:44:38;99392.00;;;21.70
64960;BMP180;51487;52.266;10.542;2023-08-06T12:47:03;99394.00;;;21.70
64960;BMP180;51487;52.266;10.542;2023-08-06T12:49:29;99404.00;;;21.70
64960;BMP180;51487;52.266;10.542;2023-08-06T12:51:56;99393.00;;;21.50
64960;BMP180;51487;52.266;10.542;2023-08-06T12:54:23;99383.00;;;21.70
64960;BMP180;51487;52.266;10.542;2023-08-06T12:56:49;99380.00;;;21.90
64960;BMP180;51487;52.266;10.542;2023-08-06T12:59:16;99388.00;;;22.00
64960;BMP180;51487;52.266;10.542;2023-08-06T13:01:42;99379.00;;;22.00
64960;BMP180;51487;52.266;10.542;2023-08-06T13:04:09;99387.00;;;22.00
64960;BMP180;51487;52.266;10.542;2023-08-06T13:06:35;99382.00;;;21.90
64960;BMP180;51487;52.266;10.542;2023-08-06T13:09:03;99384.00;;;21.80
64960;BMP180;51487;52.266;10.542;2023-08-06T13:11:30;99390.00;;;21.70
64960;BMP180;51487;52.266;10.542;2023-08-06T13:14:03;99381.00;;;21.50
64960;BMP180;51487;52.266;10.542;2023-08-06T13:16:33;99377.00;;;21.50
64960;BMP180;51487;52.266;10.542;2023-08-06T13:18:59;99381.00;;;21.60
64960;BMP180;51487;52.266;10.542;2023-08-06T13:21:32;99377.00;;;21.60
64960;BMP180;51487;52.266;10.542;2023-08-06T13:23:59;99385.00;;;21.60
64960;BMP180;51487;52.266;10.542;2023-08-06T13:26:27;99379.00;;;21.70
64960;BMP180;51487;52.266;10.542;2023-08-06T13:28:53;99383.00;;;21.70
64960;BMP180;51487;52.266;10.542;2023-08-06T13:31:18;99390.00;;;21.70
64960;BMP180;51487;52.266;10.542;2023-08-06T13:33:44;99381.00;;;21.80
64960;BMP180;51487;52.266;10.542;2023-08-06T13:36:09;99387.00;;;21.70
64960;BMP180;51487;52.266;10.542;2023-08-06T13:38:35;99379.00;;;21.80
64960;BMP180;51487;52.266;10.542;2023-08-06T13:41:01;99368.00;;;21.80
64960;BMP180;51487;52.266;10.542;2023-08-06T13:43:27;99376.00;;;22.00
64960;BMP180;51487;52.266;10.542;2023-08-06T13:45:53;99364.00;;;22.20
64960;BMP180;51487;52.266;10.542;2023-08-06T13:48:18;99373.00;;;22.20
64960;BMP180;51487;52.266;10.542;2023-08-06T13:50:44;99376.00;;;22.30
64960;BMP180;51487;52.266;10.542;2023-08-06T13:53:10;99365.00;;;22.30
64960;BMP180;51487;52.266;10.542;2023-08-06T13:55:35;99360.00;;;22.40
64960;BMP180;51487;52.266;10.542;2023-08-06T13:58:01;99369.00;;;22.50